Time;durP1;ratioP1;P1;durP2;ratioP2;P2;SDS_P1;SDS_P2;PMS_P1;PMS_P2;Temp;Humidity;BMP_temperature;BMP_pressure;BME280_temperature;BME280_humidity;BME280_pressure;Samples;Min_cycle;Max_cycle;Signal;HPM_P1;HPM_P2
2022/07/12 00:00:45;;;;;;;6.47;2.60;;;;;;;30.14;34.44;98598.47;5055318;28;20040;-72
2022/07/12 00:03:11;;;;;;;3.75;2.40;;;;;;;30.10;34.45;98591.19;5073204;28;20040;-73
2022/07/12 00:05:36;;;;;;;10.65;2.38;;;;;;;30.11;34.41;98596.34;5090802;28;20455;-73
2022/07/12 00:08:03;;;;;;;3.20;2.22;;;;;;;30.08;34.49;98596.16;5072973;28;20626;-73
2022/07/12 00:10:29;;;;;;;4.03;2.67;;;;;;;30.12;34.47;98591.69;5075196;28;20055;-73
2022/07/12 00:12:55;;;;;;;5.80;2.30;;;;;;;29.87;35.08;98595.81;5060271;28;20044;-72
2022/07/12 00:15:21;;;;;;;3.30;2.40;;;;;;;30.02;34.70;98598.22;5060172;28;20486;-73
2022/07/12 00:17:47;;;;;;;5.28;2.67;;;;;;;29.91;34.73;98594.09;5077502;28;20062;-73
2022/07/12 00:20:14;;;;;;;2.22;2.03;;;;;;;29.87;34.38;98573.09;5077818;28;20499;-74
2022/07/12 00:22:40;;;;;;;6.53;2.45;;;;;;;30.09;34.43;98598.59;5027799;28;20039;-74
2022/07/12 00:25:07;;;;;;;6.93;2.30;;;;;;;30.36;34.19;98594.97;5060378;28;20038;-74
2022/07/12 00:27:33;;;;;;;6.40;2.20;;;;;;;30.26;34.07;98589.75;5077270;28;20083;-74
2022/07/12 00:29:59;;;;;;;4.50;2.40;;;;;;;29.90;34.46;98567.84;5060466;28;20138;-73
2022/07/12 00:32:25;;;;;;;3.08;2.15;;;;;;;29.95;34.96;98583.34;5077113;28;20609;-74
2022/07/12 00:34:51;;;;;;;4.15;2.65;;;;;;;29.62;35.35;98579.94;5060063;28;20040;-74
2022/07/12 00:37:16;;;;;;;5.15;2.40;;;;;;;29.71;35.40;98555.44;5060047;28;20047;-74
2022/07/12 00:39:42;;;;;;;5.03;2.58;;;;;;;29.58;35.52;98560.56;5060333;28;20063;-73
2022/07/12 00:42:08;;;;;;;8.18;2.75;;;;;;;29.60;35.55;98566.56;5094957;28;20392;-74
2022/07/12 00:44:34;;;;;;;6.07;2.72;;;;;;;29.56;35.73;98551.06;5076946;28;20052;-74
2022/07/12 00:47:01;;;;;;;6.82;2.63;;;;;;;29.68;35.33;98534.94;5060167;28;20046;-74
2022/07/12 00:49:27;;;;;;;5.40;2.58;;;;;;;29.59;34.95;98526.63;5076434;28;20039;-74
2022/07/12 00:51:56;;;;;;;6.82;2.67;;;;;;;29.53;34.98;98508.72;5094135;28;20051;-73
2022/07/12 00:54:22;;;;;;;5.15;2.70;;;;;;;29.67;35.31;98522.38;5059944;28;20031;-73
2022/07/12 00:56:49;;;;;;;5.30;2.72;;;;;;;30.07;34.33;98524.16;5026561;28;20055;-74
2022/07/12 00:59:15;;;;;;;9.68;3.08;;;;;;;29.55;35.09;98514.66;5060539;28;20052;-74
2022/07/12 01:01:41;;;;;;;8.18;2.88;;;;;;;29.87;34.77;98518.34;5076142;28;20048;-73
2022/07/12 01:04:07;;;;;;;9.15;3.05;;;;;;;29.83;34.93;98490.78;5094546;28;20082;-75
2022/07/12 01:06:33;;;;;;;4.90;2.75;;;;;;;29.80;35.11;98517.97;5043563;28;20461;-73
2022/07/12 01:08:59;;;;;;;8.90;2.83;;;;;;;30.08;34.65;98501.13;5059534;28;20063;-73
2022/07/12 01:11:25;;;;;;;9.35;3.65;;;;;;;29.80;35.07;98512.50;5059367;28;20044;-74
2022/07/12 01:13:57;;;;;;;12.55;3.17;;;;;;;30.14;34.79;98529.22;5042787;28;20163;-73
2022/07/12 01:16:24;;;;;;;8.00;3.08;;;;;;;30.02;35.19;98526.19;5076398;28;20052;-73
2022/07/12 01:18:51;;;;;;;9.02;3.53;;;;;;;29.75;35.73;98523.56;5042357;28;20052;-72
2022/07/12 01:21:22;;;;;;;10.95;3.60;;;;;;;29.89;35.49;98502.44;5042062;28;20514;-73
2022/07/12 01:23:49;;;;;;;8.63;3.10;;;;;;;29.55;36.00;98500.97;5043222;28;20396;-73
2022/07/12 01:26:16;;;;;;;7.65;3.13;;;;;;;29.65;35.68;98489.03;5076086;28;20094;-73
2022/07/12 01:28:45;;;;;;;4.85;3.00;;;;;;;29.60;36.11;98464.47;5075569;28;20075;-74
2022/07/12 01:31:11;;;;;;;5.43;2.90;;;;;;;29.52;36.21;98470.72;5093797;28;20046;-73
2022/07/12 01:33:37;;;;;;;5.10;3.50;;;;;;;29.67;36.06;98467.63;5058553;28;20115;-74
2022/07/12 01:36:03;;;;;;;4.38;3.13;;;;;;;29.80;35.80;98474.19;5057105;28;20131;-74
2022/07/12 01:38:28;;;;;;;4.78;2.80;;;;;;;29.83;35.94;98466.13;5057332;28;20039;-74
2022/07/12 01:40:54;;;;;;;7.10;3.22;;;;;;;29.97;35.29;98468.84;5073632;28;20039;-73
2022/07/12 01:43:20;;;;;;;4.55;3.33;;;;;;;29.93;35.49;98470.56;5073647;28;20488;-73
2022/07/12 01:45:46;;;;;;;4.57;3.10;;;;;;;29.84;36.19;98483.38;5023690;28;20063;-74
2022/07/12 01:48:12;;;;;;;7.10;3.30;;;;;;;29.71;36.29;98449.47;5073806;28;20040;-73
2022/07/12 01:50:37;;;;;;;6.22;3.80;;;;;;;29.38;36.76;98448.84;5073765;28;20107;-73
2022/07/12 01:53:06;;;;;;;9.98;3.67;;;;;;;29.66;36.68;98449.63;5075230;28;20040;-73
2022/07/12 01:55:32;;;;;;;9.80;3.30;;;;;;;29.39;36.92;98449.66;5075347;28;20614;-74
2022/07/12 01:57:58;;;;;;;6.95;3.47;;;;;;;29.47;37.00;98449.75;5042005;28;20077;-76
2022/07/12 02:00:26;;;;;;;4.72;3.30;;;;;;;29.29;37.22;98441.69;5058337;28;20130;-74
2022/07/12 02:02:51;;;;;;;10.27;4.18;;;;;;;29.25;37.34;98419.63;5074984;28;20063;-74
2022/07/12 02:05:17;;;;;;;7.63;3.65;;;;;;;29.49;37.09;98439.28;5075259;28;20475;-73
2022/07/12 02:07:43;;;;;;;8.55;3.83;;;;;;;29.70;36.67;98430.63;5041902;28;20054;-73
2022/07/12 02:10:09;;;;;;;5.20;3.65;;;;;;;29.84;36.44;98431.38;5075104;28;20036;-74
2022/07/12 02:12:37;;;;;;;5.55;3.75;;;;;;;29.84;36.31;98429.44;5094988;28;20044;-73
2022/07/12 02:15:05;;;;;;;8.30;3.85;;;;;;;30.02;36.19;98422.94;5045051;28;20071;-75
2022/07/12 02:17:31;;;;;;;11.75;4.13;;;;;;;29.51;36.91;98439.78;5096432;28;20123;-73
2022/07/12 02:19:57;;;;;;;12.63;4.72;;;;;;;29.20;37.53;98438.06;5059269;28;20099;-73
2022/07/12 02:22:22;;;;;;;11.00;4.65;;;;;;;29.15;37.72;98441.69;5058084;28;20130;-74
2022/07/12 02:24:48;;;;;;;16.33;4.25;;;;;;;29.03;37.75;98427.72;5058355;28;20201;-73
2022/07/12 02:27:14;;;;;;;18.73;4.68;;;;;;;29.43;37.47;98443.25;5091439;28;20054;-74
2022/07/12 02:29:41;;;;;;;9.93;4.40;;;;;;;29.51;37.20;98437.06;5058025;28;20043;-74
2022/07/12 02:32:07;;;;;;;9.88;4.38;;;;;;;29.46;37.40;98439.13;5073943;28;20404;-74
2022/07/12 02:34:33;;;;;;;8.35;3.80;;;;;;;29.54;37.11;98443.81;5041405;28;20036;-73
2022/07/12 02:36:59;;;;;;;20.35;4.47;;;;;;;29.31;37.47;98440.25;5041524;28;20523;-74
2022/07/12 02:39:25;;;;;;;11.98;4.65;;;;;;;29.41;37.30;98453.72;5074486;28;20055;-74
2022/07/12 02:41:51;;;;;;;8.35;4.15;;;;;;;29.35;37.50;98440.47;5058208;28;20146;-74
2022/07/12 02:44:17;;;;;;;9.32;4.28;;;;;;;29.43;37.60;98439.72;5074727;28;20133;-74
2022/07/12 02:46:42;;;;;;;8.55;4.13;;;;;;;29.34;37.57;98442.38;5092513;28;20054;-74
2022/07/12 02:49:08;;;;;;;7.70;4.30;;;;;;;29.40;37.61;98448.53;5057758;28;20036;-74
2022/07/12 02:51:34;;;;;;;9.48;4.20;;;;;;;29.48;37.44;98451.34;5057473;28;20048;-74
2022/07/12 02:53:59;;;;;;;8.32;4.20;;;;;;;29.29;37.76;98449.91;5057806;28;20079;-74
2022/07/12 02:56:26;;;;;;;14.57;3.80;;;;;;;29.23;37.88;98451.91;5074101;28;20048;-74
2022/07/12 02:58:52;;;;;;;19.65;3.90;;;;;;;29.38;37.27;98448.84;5073845;28;20515;-74
2022/07/12 03:01:17;;;;;;;9.27;3.53;;;;;;;29.30;37.12;98440.56;5074123;28;20083;-74
2022/07/12 03:03:43;;;;;;;14.57;3.90;;;;;;;29.58;36.57;98461.25;5092363;28;20040;-75
2022/07/12 03:06:09;;;;;;;8.95;3.63;;;;;;;29.12;36.83;98442.31;5057024;28;20032;-74
2022/07/12 03:08:35;;;;;;;8.85;3.38;;;;;;;29.26;37.16;98462.25;5073707;28;20036;-74
2022/07/12 03:11:00;;;;;;;8.77;3.67;;;;;;;29.29;37.12;98460.84;5091519;28;20486;-74
2022/07/12 03:13:27;;;;;;;11.15;3.78;;;;;;;28.93;37.67;98455.28;5073638;28;20134;-75
2022/07/12 03:15:52;;;;;;;8.80;3.53;;;;;;;29.12;37.05;98436.06;5092156;28;20054;-74
2022/07/12 03:18:18;;;;;;;8.23;3.42;;;;;;;29.63;36.48;98468.53;5073137;28;20056;-74
2022/07/12 03:20:44;;;;;;;4.65;3.60;;;;;;;29.58;36.31;98464.78;5072608;28;20131;-74
2022/07/12 03:23:09;;;;;;;8.13;4.00;;;;;;;29.68;36.32;98463.00;5073911;28;20127;-74
2022/07/12 03:25:35;;;;;;;6.97;3.92;;;;;;;29.68;36.53;98479.41;5090675;28;20032;-73
2022/07/12 03:28:01;;;;;;;7.38;3.88;;;;;;;29.66;36.32;98467.94;5057015;28;20514;-73
2022/07/12 03:30:27;;;;;;;6.07;3.75;;;;;;;29.74;36.48;98467.22;5059274;28;20496;-73
2022/07/12 03:32:53;;;;;;;9.50;4.47;;;;;;;29.58;36.79;98450.31;5074744;28;20126;-75
2022/07/12 03:35:19;;;;;;;7.18;3.75;;;;;;;29.46;36.84;98448.09;5079240;28;20052;-73
2022/07/12 03:37:45;;;;;;;8.77;4.07;;;;;;;29.89;36.52;98450.41;5077517;28;20147;-74
2022/07/12 03:40:12;;;;;;;12.40;4.15;;;;;;;29.74;36.32;98448.06;5062844;28;20044;-73
2022/07/12 03:42:38;;;;;;;9.00;3.58;;;;;;;29.53;36.36;98418.41;5048981;28;20044;-74
2022/07/12 03:45:04;;;;;;;9.75;3.40;;;;;;;30.07;35.71;98449.41;5083163;28;20040;-73
2022/07/12 03:47:31;;;;;;;9.43;3.67;;;;;;;30.03;35.70;98467.59;5065961;28;20144;-73
2022/07/12 03:49:57;;;;;;;6.05;3.50;;;;;;;30.18;35.08;98483.63;5062890;28;20051;-72
2022/07/12 03:52:23;;;;;;;7.20;3.33;;;;;;;30.40;35.21;98469.94;5097904;28;20095;-75
2022/07/12 03:54:49;;;;;;;11.40;3.65;;;;;;;30.37;35.05;98476.06;5056407;28;20077;-73
2022/07/12 03:57:15;;;;;;;8.43;4.10;;;;;;;30.01;35.85;98456.94;5056307;28;20047;-73
2022/07/12 03:59:56;;;;;;;7.75;4.03;;;;;;;30.71;34.82;98490.72;5072717;28;20039;-75
2022/07/12 04:02:22;;;;;;;8.35;3.45;;;;;;;30.87;34.48;98477.41;5072889;28;20044;-73
2022/07/12 04:04:49;;;;;;;18.90;3.80;;;;;;;30.78;34.64;98487.56;5040188;28;20036;-74
2022/07/12 04:07:15;;;;;;;10.48;3.78;;;;;;;30.59;34.90;98486.94;5073287;28;20039;-74
2022/07/12 04:09:40;;;;;;;13.00;3.58;;;;;;;30.87;34.46;98482.91;5072853;28;20048;-75
2022/07/12 04:12:06;;;;;;;6.65;3.72;;;;;;;30.62;34.58;98476.16;5055961;28;20059;-74
2022/07/12 04:14:33;;;;;;;9.27;4.20;;;;;;;30.71;34.65;98457.00;5055935;28;20447;-74
2022/07/12 04:16:59;;;;;;;10.23;4.78;;;;;;;30.46;35.33;98483.16;5055963;28;20071;-74
2022/07/12 04:19:27;;;;;;;6.95;3.85;;;;;;;30.25;35.45;98503.19;5073018;28;20086;-75
2022/07/12 04:21:55;;;;;;;11.18;4.05;;;;;;;30.49;35.40;98481.75;5057170;28;20051;-75
2022/07/12 04:24:21;;;;;;;6.88;4.10;;;;;;;30.12;36.30;98504.06;5073422;28;20048;-74
2022/07/12 04:26:48;;;;;;;5.60;3.72;;;;;;;30.04;36.12;98483.72;5074171;28;20766;-75
2022/07/12 04:29:15;;;;;;;6.20;3.55;;;;;;;30.66;35.34;98484.56;5057453;28;20055;-75
2022/07/12 04:31:41;;;;;;;10.25;3.97;;;;;;;30.82;34.83;98474.81;5059629;28;20044;-75
2022/07/12 04:34:07;;;;;;;7.75;3.78;;;;;;;30.82;34.25;98489.34;5040656;28;20048;-74
2022/07/12 04:36:33;;;;;;;9.43;3.92;;;;;;;30.60;34.68;98485.84;5073228;28;20059;-74
2022/07/12 04:38:59;;;;;;;6.78;3.70;;;;;;;30.73;34.77;98506.84;5090275;28;20492;-74
2022/07/12 04:41:25;;;;;;;10.55;4.28;;;;;;;30.97;34.52;98496.31;5072618;28;20051;-75
2022/07/12 04:43:51;;;;;;;5.07;3.92;;;;;;;30.79;34.36;98472.69;5072505;28;20079;-73
2022/07/12 04:46:17;;;;;;;12.52;4.40;;;;;;;30.63;34.96;98487.94;5022356;28;20521;-75
2022/07/12 04:48:43;;;;;;;8.48;4.07;;;;;;;31.03;34.47;98520.53;5055782;28;20549;-74
2022/07/12 04:51:09;;;;;;;8.48;3.70;;;;;;;30.67;35.00;98497.97;5055904;28;20048;-75
2022/07/12 04:53:35;;;;;;;8.40;4.10;;;;;;;30.51;35.05;98506.88;5023114;28;20044;-74
2022/07/12 04:56:01;;;;;;;8.52;4.20;;;;;;;30.50;34.99;98517.06;5041162;28;20496;-75
2022/07/12 04:58:26;;;;;;;7.22;3.90;;;;;;;30.50;34.96;98513.50;5043075;28;20047;-74
2022/07/12 05:00:53;;;;;;;14.70;4.68;;;;;;;30.23;35.59;98541.06;5023126;28;20058;-76
2022/07/12 05:03:20;;;;;;;9.95;4.28;;;;;;;30.17;35.86;98518.41;5056475;28;20044;-75
2022/07/12 05:05:46;;;;;;;11.13;4.13;;;;;;;30.00;36.32;98501.84;5025258;28;20048;-76
2022/07/12 05:08:12;;;;;;;12.80;4.50;;;;;;;29.49;36.83;98509.63;5058309;28;20565;-76
2022/07/12 05:10:38;;;;;;;13.45;4.75;;;;;;;30.02;35.99;98516.06;5057393;28;20415;-75
2022/07/12 05:13:04;;;;;;;9.15;3.90;;;;;;;30.25;35.91;98522.38;5024041;28;20052;-75
2022/07/12 05:15:30;;;;;;;11.50;4.20;;;;;;;29.94;36.20;98507.78;5074718;28;20043;-76
2022/07/12 05:17:56;;;;;;;8.48;3.92;;;;;;;29.94;36.12;98507.78;5025116;28;20649;-76
2022/07/12 05:20:22;;;;;;;9.05;4.15;;;;;;;29.74;36.66;98519.22;5021967;28;20036;-76
2022/07/12 05:22:48;;;;;;;6.68;4.05;;;;;;;29.79;36.52;98508.94;5039239;28;20066;-75
2022/07/12 05:25:14;;;;;;;11.65;3.83;;;;;;;30.01;35.83;98506.25;5024650;28;20083;-75
2022/07/12 05:27:39;;;;;;;12.00;4.30;;;;;;;30.49;35.40;98520.13;5090342;28;20040;-75
2022/07/12 05:30:06;;;;;;;12.82;4.05;;;;;;;30.14;36.04;98523.72;5040830;28;20116;-75
2022/07/12 05:32:31;;;;;;;9.43;3.92;;;;;;;30.23;35.65;98517.19;5062834;28;20051;-76
2022/07/12 05:34:57;;;;;;;9.05;4.10;;;;;;;30.12;35.83;98515.00;5041215;28;20044;-75
2022/07/12 05:37:24;;;;;;;8.48;4.10;;;;;;;30.01;36.00;98519.09;5057455;28;20044;-76
2022/07/12 05:39:53;;;;;;;16.20;3.97;;;;;;;30.37;35.52;98530.84;5059068;28;20051;-76
2022/07/12 05:42:19;;;;;;;18.52;4.57;;;;;;;29.80;37.03;98523.47;5058909;28;20039;-75
2022/07/12 05:44:45;;;;;;;9.27;4.07;;;;;;;30.10;36.44;98518.06;5056060;28;20044;-75
2022/07/12 05:47:15;;;;;;;14.15;4.43;;;;;;;30.16;36.57;98530.50;5044206;28;20039;-75
2022/07/12 05:49:41;;;;;;;5.90;3.75;;;;;;;29.94;36.54;98518.75;5044314;28;20047;-75
2022/07/12 05:54:51;;;;;;;9.70;4.13;;;;;;;30.14;36.06;98524.53;5056267;28;20040;-75
2022/07/12 05:57:17;;;;;;;7.75;3.97;;;;;;;30.22;35.86;98528.47;5040012;28;20496;-76
2022/07/12 05:59:43;;;;;;;10.45;4.30;;;;;;;30.03;36.22;98533.31;5040842;28;20097;-76
2022/07/12 06:02:09;;;;;;;13.48;4.45;;;;;;;30.63;35.13;98529.06;5040839;28;20071;-75
2022/07/12 06:04:36;;;;;;;12.73;4.25;;;;;;;30.44;35.39;98525.72;5063679;28;20040;-75
2022/07/12 06:07:02;;;;;;;12.05;4.25;;;;;;;30.54;35.10;98511.75;5040198;28;20043;-76
2022/07/12 06:09:27;;;;;;;13.63;4.45;;;;;;;30.22;35.61;98512.03;5046467;28;20122;-72
2022/07/12 06:11:53;;;;;;;10.73;4.15;;;;;;;30.64;35.02;98544.38;5039569;28;20579;-75
2022/07/12 06:14:20;;;;;;;13.10;4.50;;;;;;;30.36;35.32;98535.50;5038989;28;20039;-74
2022/07/12 06:16:46;;;;;;;14.43;4.22;;;;;;;29.95;36.14;98528.56;5074578;28;20044;-73
2022/07/12 06:19:12;;;;;;;9.05;4.00;;;;;;;30.45;35.33;98522.66;5043392;28;20054;-73
2022/07/12 06:21:38;;;;;;;9.05;3.95;;;;;;;30.68;34.90;98529.72;5093499;28;20479;-72
2022/07/12 06:24:05;;;;;;;10.93;4.15;;;;;;;30.38;36.13;98516.84;5093557;28;20178;-73
2022/07/12 06:26:30;;;;;;;12.23;4.18;;;;;;;30.43;36.22;98529.59;5043485;28;20499;-73
2022/07/12 06:29:01;;;;;;;7.63;4.35;;;;;;;30.15;36.04;98522.59;5059666;28;20077;-73
2022/07/12 06:31:28;;;;;;;21.25;4.47;;;;;;;30.77;35.76;98543.50;5093034;28;20058;-73
2022/07/12 06:33:54;;;;;;;16.15;4.30;;;;;;;31.06;35.10;98538.31;5043468;28;20112;-74
2022/07/12 06:36:19;;;;;;;13.75;4.47;;;;;;;30.97;35.21;98557.47;5076984;28;20487;-72
2022/07/12 06:38:48;;;;;;;10.73;4.38;;;;;;;30.94;35.35;98549.06;5076471;28;20047;-71
2022/07/12 06:41:13;;;;;;;15.70;4.88;;;;;;;30.39;36.30;98562.28;5092912;28;20051;-73
2022/07/12 06:43:39;;;;;;;9.80;4.30;;;;;;;30.76;35.80;98555.59;5059749;28;20040;-73
2022/07/12 06:46:05;;;;;;;6.95;4.03;;;;;;;30.35;36.07;98563.22;5076913;28;20036;-73
2022/07/12 06:48:31;;;;;;;15.13;4.50;;;;;;;30.39;36.47;98553.25;5076540;28;20471;-73
2022/07/12 06:50:57;;;;;;;8.70;4.65;;;;;;;30.62;35.82;98579.50;5060163;28;20073;-73
2022/07/12 06:53:23;;;;;;;8.00;3.85;;;;;;;29.70;37.00;98562.00;5076072;28;20043;-73
2022/07/12 06:55:50;;;;;;;14.68;4.13;;;;;;;29.83;37.36;98561.16;5043490;28;20067;-73
2022/07/12 06:58:16;;;;;;;16.63;4.43;;;;;;;29.92;36.66;98551.91;5076694;28;20043;-74
2022/07/12 07:00:42;;;;;;;9.70;3.92;;;;;;;28.97;38.57;98603.91;5076635;28;20388;-75
2022/07/12 07:03:08;;;;;;;14.00;3.70;;;;;;;29.32;38.26;98554.03;5043263;28;20104;-74
2022/07/12 07:05:36;;;;;;;7.50;3.63;;;;;;;29.54;37.69;98577.91;5077308;28;20062;-73
2022/07/12 07:08:03;;;;;;;5.65;3.80;;;;;;;29.97;36.97;98592.06;5082820;28;20046;-74
2022/07/12 07:10:29;;;;;;;8.20;3.92;;;;;;;29.46;37.99;98565.75;5072082;28;20035;-75
2022/07/12 07:12:54;;;;;;;7.35;3.38;;;;;;;30.72;35.77;98568.28;5088227;28;20089;-74
2022/07/12 07:15:21;;;;;;;10.55;3.90;;;;;;;31.06;34.97;98577.50;5086482;28;20446;-74
2022/07/12 07:17:50;;;;;;;13.93;3.90;;;;;;;31.63;33.98;98566.56;5090731;28;20184;-70
2022/07/12 07:20:15;;;;;;;7.38;3.28;;;;;;;31.86;33.80;98557.91;5078516;28;20056;-73
2022/07/12 07:22:41;;;;;;;10.75;2.85;;;;;;;31.84;33.70;98549.19;5048277;28;20528;-74
2022/07/12 07:25:09;;;;;;;12.02;3.20;;;;;;;32.74;32.44;98556.34;5082496;28;20596;-71
2022/07/12 07:27:35;;;;;;;7.35;3.00;;;;;;;33.44;31.18;98564.06;5082566;28;20040;-74
2022/07/12 07:32:45;;;;;;;3.95;2.88;;;;;;;33.79;29.68;98549.72;5065216;28;20057;-73
2022/07/12 07:35:11;;;;;;;11.60;2.95;;;;;;;34.04;29.82;98565.25;5078688;28;20099;-74
2022/07/12 07:37:38;;;;;;;12.07;4.07;;;;;;;33.98;29.62;98560.31;5054947;28;20051;-73
2022/07/12 07:40:04;;;;;;;9.93;3.30;;;;;;;34.65;28.87;98568.28;5048664;28;20063;-74
2022/07/12 07:42:30;;;;;;;10.57;3.15;;;;;;;36.31;26.56;98565.06;5093259;28;20043;-75
2022/07/12 07:44:56;;;;;;;7.10;3.17;;;;;;;37.07;24.66;98589.69;5042726;28;20052;-74
2022/07/12 07:47:22;;;;;;;6.63;2.92;;;;;;;35.84;26.41;98575.09;5055140;28;20051;-75
2022/07/12 07:49:48;;;;;;;10.75;3.30;;;;;;;34.24;28.88;98569.94;5038228;28;20783;-73
2022/07/12 07:52:14;;;;;;;8.73;3.25;;;;;;;34.13;29.03;98582.56;5055288;28;20048;-75
2022/07/12 07:54:39;;;;;;;8.10;3.08;;;;;;;34.12;29.57;98569.91;5038881;28;20040;-74
2022/07/12 07:57:05;;;;;;;15.95;3.20;;;;;;;34.61;28.97;98581.16;5038564;28;20047;-75
2022/07/12 07:59:31;;;;;;;7.53;3.33;;;;;;;34.59;29.17;98576.00;5022261;28;20044;-71
2022/07/12 08:01:57;;;;;;;9.25;3.30;;;;;;;34.27;29.29;98595.25;5038365;28;20043;-74
2022/07/12 08:04:23;;;;;;;7.22;3.30;;;;;;;34.29;29.54;98593.75;5055316;28;20074;-75
2022/07/12 08:06:51;;;;;;;10.70;3.60;;;;;;;34.66;28.90;98595.53;5040388;28;20437;-76
2022/07/12 08:09:23;;;;;;;6.13;3.08;;;;;;;35.65;26.70;98616.31;5080889;28;20450;-75
2022/07/12 08:11:49;;;;;;;8.77;3.42;;;;;;;36.69;25.54;98606.84;5069195;28;20046;-75
2022/07/12 08:14:15;;;;;;;8.70;3.30;;;;;;;37.60;24.01;98600.16;5063228;28;20039;-75
2022/07/12 08:16:41;;;;;;;5.38;3.20;;;;;;;39.21;22.38;98601.97;5073869;28;20036;-77
2022/07/12 08:19:07;;;;;;;5.90;2.92;;;;;;;40.67;20.18;98612.91;5034854;28;20052;-75
2022/07/12 08:21:33;;;;;;;10.63;2.65;;;;;;;43.39;17.67;98623.44;5052044;28;20041;-74
2022/07/12 08:24:02;;;;;;;11.23;2.95;;;;;;;44.48;16.38;98617.69;5029946;28;20403;-74
2022/07/12 08:26:27;;;;;;;5.13;2.43;;;;;;;44.42;15.37;98591.31;5067800;28;20415;-74
2022/07/12 08:28:55;;;;;;;4.70;2.08;;;;;;;45.96;14.76;98597.84;5067558;28;20052;-74
2022/07/12 08:31:21;;;;;;;6.13;2.53;;;;;;;48.30;13.46;98608.78;5069193;28;20234;-72
2022/07/12 08:33:47;;;;;;;6.03;2.35;;;;;;;47.66;12.63;98611.97;5071593;28;20450;-73
2022/07/12 08:36:16;;;;;;;13.50;2.55;;;;;;;45.83;13.90;98605.19;5054136;28;20044;-75
2022/07/12 08:38:44;;;;;;;8.25;2.35;;;;;;;45.08;14.65;98629.44;5055335;28;20041;-74
2022/07/12 08:41:13;;;;;;;8.02;2.88;;;;;;;42.67;16.89;98608.91;5055704;28;20063;-74
2022/07/12 08:43:39;;;;;;;4.78;2.42;;;;;;;40.15;19.61;98600.69;5072373;28;20036;-73
2022/07/12 08:46:07;;;;;;;7.75;2.50;;;;;;;40.50;18.80;98611.53;5049663;28;20044;-73
2022/07/12 08:48:37;;;;;;;10.25;2.53;;;;;;;39.97;19.51;98609.97;5058869;28;20048;-73
2022/07/12 08:51:08;;;;;;;10.88;3.05;;;;;;;39.80;19.97;98618.84;5057601;28;20044;-73
2022/07/12 08:53:34;;;;;;;3.83;2.58;;;;;;;40.67;18.01;98624.03;5054819;28;20059;-72
2022/07/12 08:56:01;;;;;;;9.23;2.90;;;;;;;41.38;17.70;98627.19;5055730;28;20049;-75
2022/07/12 08:58:29;;;;;;;8.02;2.72;;;;;;;40.82;18.21;98623.03;5073313;28;20049;-74
2022/07/12 09:00:55;;;;;;;5.13;2.47;;;;;;;41.65;17.72;98620.28;5039907;28;20102;-73
2022/07/12 09:03:21;;;;;;;5.18;2.28;;;;;;;43.80;15.50;98624.63;5057913;28;20074;-73
2022/07/12 09:05:55;;;;;;;5.90;2.35;;;;;;;44.43;14.47;98637.72;5091544;28;20039;-74
2022/07/12 09:08:27;;;;;;;6.28;2.40;;;;;;;43.24;15.70;98630.25;5056688;28;20487;-74
2022/07/12 09:10:56;;;;;;;3.67;2.20;;;;;;;41.45;17.57;98624.47;5071004;28;20135;-74
2022/07/12 09:13:46;;;;;;;5.68;2.83;;;;;;;39.64;19.53;98640.44;5070660;28;20048;-74
2022/07/12 09:16:14;;;;;;;4.75;2.72;;;;;;;39.15;20.38;98615.38;5053705;28;20052;-74
2022/07/12 09:18:41;;;;;;;5.78;2.38;;;;;;;38.30;21.15;98612.91;5067783;28;20060;-74
2022/07/12 09:21:06;;;;;;;13.18;3.03;;;;;;;39.91;19.73;98630.97;5032779;28;20044;-74
2022/07/12 09:23:32;;;;;;;6.72;2.33;;;;;;;41.15;18.01;98675.97;5030116;28;20048;-74
2022/07/12 09:26:01;;;;;;;5.18;2.65;;;;;;;41.41;17.49;98645.94;5036452;28;20075;-73
2022/07/12 09:28:26;;;;;;;6.93;2.55;;;;;;;38.32;20.76;98643.03;5052878;28;20048;-75
2022/07/12 09:30:54;;;;;;;11.13;2.45;;;;;;;38.11;21.25;98637.81;5020371;28;20044;-77
2022/07/12 09:36:06;;;;;;;5.20;2.97;;;;;;;36.53;23.98;98632.88;5040953;28;20198;-74
2022/07/12 09:38:40;;;;;;;8.88;3.47;;;;;;;36.86;24.16;98642.53;5071655;28;20044;-74
2022/07/12 09:41:07;;;;;;;7.25;2.72;;;;;;;37.58;23.14;98638.50;5037662;28;20518;-76
2022/07/12 09:43:34;;;;;;;6.43;2.53;;;;;;;40.92;19.30;98662.16;5038166;28;20068;-74
2022/07/12 09:46:00;;;;;;;6.22;2.88;;;;;;;42.48;16.84;98671.47;5037381;28;20056;-74
2022/07/12 09:48:28;;;;;;;8.30;2.80;;;;;;;42.67;16.01;98671.13;5037487;28;20044;-75
2022/07/12 09:50:56;;;;;;;6.18;2.78;;;;;;;42.43;16.03;98655.09;5053942;28;20102;-76
2022/07/12 09:53:38;;;;;;;7.25;2.45;;;;;;;40.58;17.95;98654.94;5054626;28;20131;-75
2022/07/12 09:56:05;;;;;;;8.52;2.55;;;;;;;39.18;19.60;98681.28;5038068;28;20075;-74
2022/07/12 09:58:49;;;;;;;9.65;2.60;;;;;;;39.32;19.68;98664.09;5054213;28;20059;-75
2022/07/12 10:01:15;;;;;;;8.88;2.15;;;;;;;39.40;19.09;98685.25;5037695;28;20106;-75
2022/07/12 10:03:42;;;;;;;5.45;1.67;;;;;;;39.11;19.42;98678.41;5057068;28;20047;-73
2022/07/12 10:06:11;;;;;;;3.00;1.20;;;;;;;36.81;20.37;98725.81;5054666;28;20446;-73
2022/07/12 10:08:37;;;;;;;6.53;1.77;;;;;;;37.62;19.58;98705.09;5072089;28;20048;-73
2022/07/12 10:11:03;;;;;;;7.90;1.40;;;;;;;38.83;18.80;98697.25;5038176;28;20043;-73
2022/07/12 10:13:30;;;;;;;1.92;1.20;;;;;;;40.29;17.43;98689.16;5053246;28;20040;-74
2022/07/12 10:16:02;;;;;;;9.50;1.20;;;;;;;42.07;15.06;98695.13;5047775;28;20138;-72
2022/07/12 10:18:29;;;;;;;12.82;1.63;;;;;;;42.77;13.97;98667.63;5078082;28;20894;-73
2022/07/12 10:20:55;;;;;;;7.22;1.00;;;;;;;45.20;12.83;98693.44;5061200;28;20043;-73
2022/07/12 10:23:37;;;;;;;7.63;1.00;;;;;;;47.04;10.35;98682.81;5093222;28;20056;-73
2022/07/12 10:26:16;;;;;;;4.93;0.90;;;;;;;46.53;10.22;98741.31;5020986;28;20052;-75
2022/07/12 10:29:00;;;;;;;1.83;0.60;;;;;;;45.12;11.17;98755.59;5074871;28;20036;-74
2022/07/12 10:31:30;;;;;;;6.00;0.90;;;;;;;44.40;11.67;98692.56;5075509;28;20044;-77
2022/07/12 10:34:20;;;;;;;2.75;0.90;;;;;;;45.50;10.99;98704.84;5092935;28;20067;-75
2022/07/12 10:36:58;;;;;;;4.07;0.80;;;;;;;44.47;11.69;98712.13;5054840;28;20036;-75
2022/07/12 10:39:27;;;;;;;6.25;1.02;;;;;;;43.44;12.26;98720.94;5039121;28;20093;-74
2022/07/12 10:42:19;;;;;;;;;;;;;;;44.16;12.14;98724.19;5073736;28;20157;-75
2022/07/12 10:44:48;;;;;;;5.18;1.08;;;;;;;43.23;12.65;98707.72;5054430;28;19938;-74
2022/07/12 10:47:15;;;;;;;4.68;0.82;;;;;;;42.64;12.95;98721.41;5041399;28;20198;-75
2022/07/12 10:49:48;;;;;;;4.43;1.00;;;;;;;42.83;13.32;98712.72;5095320;28;20078;-74
2022/07/12 10:52:26;;;;;;;4.60;1.00;;;;;;;43.31;13.08;98704.91;5095627;28;20051;-75
2022/07/12 10:54:54;;;;;;;3.03;0.82;;;;;;;44.14;12.13;98725.78;5075886;28;20042;-73
2022/07/12 10:57:45;;;;;;;5.40;0.65;;;;;;;44.46;12.00;98710.53;5076252;28;20057;-74
2022/07/12 11:00:13;;;;;;;3.10;0.70;;;;;;;43.49;12.38;98705.78;5090145;28;20130;-74
2022/07/12 11:02:40;;;;;;;3.22;0.88;;;;;;;42.65;12.94;98725.81;5040173;28;20044;-74
2022/07/12 11:05:06;;;;;;;2.78;0.93;;;;;;;42.02;13.96;98703.88;5052509;28;20093;-75
2022/07/12 11:07:33;;;;;;;4.25;0.73;;;;;;;41.22;14.47;98720.63;5055704;28;20101;-75
2022/07/12 11:10:02;;;;;;;2.67;0.70;;;;;;;41.56;14.21;98738.91;5056765;28;20048;-76
2022/07/12 11:12:30;;;;;;;5.25;0.70;;;;;;;40.17;15.20;98718.00;5056688;28;20075;-76
2022/07/12 11:14:58;;;;;;;4.60;1.00;;;;;;;39.44;16.63;98716.75;5038924;28;20048;-75
2022/07/12 11:17:28;;;;;;;2.03;0.73;;;;;;;38.57;17.38;98705.44;5072410;28;20195;-75
2022/07/12 11:20:06;;;;;;;1.52;0.80;;;;;;;37.31;18.60;98772.38;5071836;28;20067;-74
2022/07/12 11:22:32;;;;;;;5.45;1.05;;;;;;;36.59;19.88;98720.81;5061480;28;20054;-74
2022/07/12 11:24:59;;;;;;;2.50;0.85;;;;;;;37.05;19.71;98714.66;5022155;28;20503;-72
2022/07/12 11:27:26;;;;;;;3.95;0.82;;;;;;;36.85;19.32;98684.41;5088424;28;20048;-72
2022/07/12 11:29:59;;;;;;;5.15;0.82;;;;;;;36.87;19.41;98729.16;5071962;28;20086;-71
2022/07/12 11:32:39;;;;;;;1.65;0.80;;;;;;;36.13;19.75;98731.56;5038661;28;20471;-71
2022/07/12 11:35:20;;;;;;;2.35;0.90;;;;;;;35.74;20.35;98747.69;5037926;28;20454;-72
2022/07/12 11:37:54;;;;;;;4.75;0.90;;;;;;;35.64;20.80;98731.53;5058646;28;20126;-72
2022/07/12 11:40:22;;;;;;;1.42;0.90;;;;;;;35.60;20.82;98744.44;5039433;28;20052;-76